Time;durP1;ratioP1;P1;durP2;ratioP2;P2;SDS_P1;SDS_P2;PMS_P1;PMS_P2;Temp;Humidity;BMP_temperature;BMP_pressure;BME280_temperature;BME280_humidity;BME280_pressure;Samples;Min_cycle;Max_cycle;Signal;HPM_P1;HPM_P2
2022/03/16 00:00:08;;;;;;;37.58;29.85;;;;;;;7.70;63.36;102348.03;5031803;28;20041;-60
2022/03/16 00:02:33;;;;;;;36.90;28.60;;;;;;;7.72;63.42;102351.47;5030836;28;20112;-60
2022/03/16 00:04:58;;;;;;;42.08;29.70;;;;;;;7.76;63.63;102358.31;5032149;28;20426;-61
2022/03/16 00:07:27;;;;;;;37.03;29.35;;;;;;;7.80;63.24;102356.84;5029953;28;20029;-60
2022/03/16 00:09:55;;;;;;;41.53;31.60;;;;;;;7.84;63.59;102361.78;5031829;28;20025;-61
2022/03/16 00:12:20;;;;;;;39.10;29.63;;;;;;;7.81;63.70;102356.63;5031277;28;20025;-60
2022/03/16 00:14:46;;;;;;;39.88;30.25;;;;;;;7.83;63.33;102343.50;5031607;28;20646;-60
2022/03/16 00:17:12;;;;;;;41.42;31.80;;;;;;;7.83;65.34;102354.53;5030013;28;20069;-61
2022/03/16 00:19:39;;;;;;;38.58;29.83;;;;;;;7.85;64.29;102357.94;5031274;28;20037;-62
2022/03/16 00:22:05;;;;;;;40.42;30.80;;;;;;;7.89;64.29;102361.19;5032167;28;20423;-61
2022/03/16 00:24:31;;;;;;;38.47;30.05;;;;;;;7.90;63.69;102350.97;5026950;28;20037;-61
2022/03/16 00:26:56;;;;;;;39.78;32.10;;;;;;;7.95;65.26;102354.88;5031369;28;20026;-61
2022/03/16 00:29:21;;;;;;;41.78;32.85;;;;;;;7.90;64.96;102362.91;5031340;28;20395;-61
2022/03/16 00:31:47;;;;;;;39.78;30.02;;;;;;;7.93;64.77;102354.19;5030340;28;20041;-61
2022/03/16 00:34:13;;;;;;;38.53;30.63;;;;;;;7.92;64.62;102363.56;5030889;28;20027;-61
2022/03/16 00:36:38;;;;;;;39.80;30.52;;;;;;;7.92;64.58;102358.03;5015192;28;20125;-61
2022/03/16 00:39:04;;;;;;;41.55;32.05;;;;;;;7.89;64.75;102369.47;5015890;28;20021;-61
2022/03/16 00:41:29;;;;;;;40.00;31.58;;;;;;;7.92;64.70;102358.03;5030729;28;20072;-61
2022/03/16 00:43:54;;;;;;;43.15;31.08;;;;;;;7.94;65.28;102355.03;5030384;28;20073;-61
2022/03/16 00:46:20;;;;;;;40.05;30.08;;;;;;;7.99;65.92;102353.41;5031509;28;20385;-61
2022/03/16 00:48:48;;;;;;;42.03;32.10;;;;;;;7.99;65.94;102345.13;5018479;28;20022;-61
2022/03/16 00:51:14;;;;;;;37.53;30.73;;;;;;;7.93;65.08;102348.66;5030779;28;20025;-61
2022/03/16 00:53:40;;;;;;;38.85;30.85;;;;;;;7.95;65.41;102354.88;5031402;28;20105;-61
2022/03/16 00:56:07;;;;;;;36.63;29.77;;;;;;;7.91;64.74;102356.31;5029544;28;20021;-61
2022/03/16 00:58:32;;;;;;;39.65;29.17;;;;;;;7.86;64.77;102351.41;5030385;28;20140;-61
2022/03/16 01:00:58;;;;;;;37.60;29.65;;;;;;;7.83;64.80;102362.00;5031325;28;20116;-60
2022/03/16 01:03:27;;;;;;;40.53;30.55;;;;;;;7.77;65.34;102348.94;5029039;28;20035;-61
2022/03/16 01:05:52;;;;;;;39.08;31.10;;;;;;;7.78;64.71;102351.53;5031505;28;20037;-61
2022/03/16 01:08:17;;;;;;;43.75;30.90;;;;;;;7.76;66.09;102341.72;5030297;28;20040;-61
2022/03/16 01:10:45;;;;;;;38.22;29.65;;;;;;;7.73;65.14;102347.63;5030840;28;20117;-61
2022/03/16 01:13:11;;;;;;;40.92;29.83;;;;;;;7.71;65.40;102345.06;5029940;28;20029;-61
2022/03/16 01:15:36;;;;;;;40.97;31.95;;;;;;;7.75;64.83;102342.78;5030292;28;20443;-61
2022/03/16 01:18:01;;;;;;;37.83;29.50;;;;;;;7.71;66.07;102339.56;5030581;28;20047;-61
2022/03/16 01:20:27;;;;;;;37.30;29.40;;;;;;;7.73;65.17;102339.34;5030231;28;20444;-61
2022/03/16 01:22:52;;;;;;;38.40;30.90;;;;;;;7.72;65.51;102343.16;5030777;28;20030;-61
2022/03/16 01:25:17;;;;;;;41.35;30.98;;;;;;;7.71;64.76;102336.78;5029309;28;20488;-61
2022/03/16 01:27:43;;;;;;;42.05;29.17;;;;;;;7.78;64.91;102336.81;5031304;28;20068;-61
2022/03/16 01:30:13;;;;;;;41.25;30.13;;;;;;;7.67;65.33;102338.25;5028552;28;20029;-61
2022/03/16 01:32:39;;;;;;;39.65;30.08;;;;;;;7.68;65.73;102337.19;5030987;28;20034;-61
2022/03/16 01:35:04;;;;;;;36.88;29.42;;;;;;;7.67;65.05;102342.91;5030072;28;20408;-61
2022/03/16 01:37:30;;;;;;;36.95;29.55;;;;;;;7.71;65.56;102334.03;5030449;28;20025;-61
2022/03/16 01:39:56;;;;;;;37.63;30.73;;;;;;;7.63;65.45;102332.25;5029649;28;20097;-61
2022/03/16 01:42:21;;;;;;;39.22;29.95;;;;;;;7.60;65.22;102335.41;5031890;28;20116;-61
2022/03/16 01:44:49;;;;;;;37.55;30.35;;;;;;;7.61;65.05;102330.72;5033060;28;20134;-61
2022/03/16 01:47:19;;;;;;;38.03;29.25;;;;;;;7.58;65.47;102309.00;5035077;28;20037;-61
2022/03/16 01:49:46;;;;;;;40.38;29.73;;;;;;;7.61;66.02;102312.22;5023066;28;20745;-61
2022/03/16 01:52:16;;;;;;;38.88;29.63;;;;;;;7.61;65.73;102306.69;5017839;28;20038;-61
2022/03/16 01:54:41;;;;;;;35.95;28.55;;;;;;;7.71;65.93;102300.00;5014590;28;20026;-61
2022/03/16 01:57:11;;;;;;;39.33;29.85;;;;;;;7.67;64.84;102304.22;5025438;28;20042;-60
2022/03/16 01:59:37;;;;;;;38.75;30.88;;;;;;;7.60;65.46;102305.00;5014188;28;20042;-61
2022/03/16 02:02:10;;;;;;;35.92;29.10;;;;;;;7.55;65.55;102302.00;5024828;28;20032;-62
2022/03/16 02:04:36;;;;;;;37.22;28.88;;;;;;;7.57;65.60;102305.38;5034410;28;20041;-61
2022/03/16 02:07:02;;;;;;;38.90;28.98;;;;;;;7.57;65.58;102291.56;5026681;28;20044;-61
2022/03/16 02:09:29;;;;;;;37.13;28.05;;;;;;;7.56;65.16;102292.63;5034720;28;20017;-60
2022/03/16 02:11:54;;;;;;;34.53;27.35;;;;;;;7.57;65.37;102291.56;5033439;28;20389;-61
2022/03/16 02:14:19;;;;;;;36.05;28.42;;;;;;;7.55;64.95;102288.16;5033801;28;20022;-61
2022/03/16 02:16:46;;;;;;;36.85;28.77;;;;;;;7.53;65.45;102281.97;5033081;28;20074;-61
2022/03/16 02:19:11;;;;;;;35.72;28.23;;;;;;;7.51;65.74;102283.25;5033709;28;20032;-61
2022/03/16 02:21:38;;;;;;;35.35;26.77;;;;;;;7.53;65.78;102290.25;5032360;28;20033;-62
2022/03/16 02:24:05;;;;;;;37.13;27.90;;;;;;;7.56;65.50;102289.88;5033005;28;20084;-61
2022/03/16 02:26:30;;;;;;;34.00;26.67;;;;;;;7.57;65.17;102288.81;5032684;28;20153;-61
2022/03/16 02:28:55;;;;;;;30.85;25.10;;;;;;;7.60;65.52;102293.09;5034525;28;20552;-61
2022/03/16 02:31:21;;;;;;;33.83;27.08;;;;;;;7.60;64.51;102293.09;5033079;28;20120;-61
2022/03/16 02:33:46;;;;;;;31.85;26.05;;;;;;;7.55;65.08;102287.31;5033766;28;20104;-61
2022/03/16 02:36:14;;;;;;;33.95;25.10;;;;;;;7.56;65.10;102292.63;5032964;28;20488;-61
2022/03/16 02:38:40;;;;;;;29.88;24.95;;;;;;;7.52;65.16;102299.63;5034340;28;20056;-61
2022/03/16 02:41:08;;;;;;;32.50;24.92;;;;;;;7.51;65.16;102300.66;5031881;28;20053;-61
2022/03/16 02:43:34;;;;;;;31.30;24.63;;;;;;;7.51;65.47;102294.28;5033970;28;20096;-61
2022/03/16 02:45:59;;;;;;;30.33;24.10;;;;;;;7.47;65.00;102301.28;5032905;28;20449;-61
2022/03/16 02:48:25;;;;;;;30.95;24.55;;;;;;;7.48;65.01;102289.16;5024644;28;20033;-61
2022/03/16 02:50:50;;;;;;;28.92;23.63;;;;;;;7.42;66.23;102289.94;5028870;28;20453;-61
2022/03/16 02:53:15;;;;;;;33.45;24.35;;;;;;;7.37;64.90;102276.72;5033378;28;20067;-61
2022/03/16 02:55:42;;;;;;;30.50;24.13;;;;;;;7.31;65.67;102283.00;5012311;28;20060;-61
2022/03/16 02:58:08;;;;;;;31.33;24.33;;;;;;;7.31;66.05;102269.22;5018462;28;20053;-60
2022/03/16 03:00:34;;;;;;;29.35;23.65;;;;;;;7.34;65.93;102271.59;5014313;28;20029;-61
2022/03/16 03:02:59;;;;;;;26.38;22.40;;;;;;;7.30;65.70;102273.88;5014573;28;20026;-61
2022/03/16 03:05:25;;;;;;;29.38;23.70;;;;;;;7.32;65.50;102263.50;5014106;28;20033;-61
2022/03/16 03:07:50;;;;;;;31.45;24.13;;;;;;;7.36;65.79;102259.28;5020142;28;20048;-61
2022/03/16 03:10:15;;;;;;;29.08;23.45;;;;;;;7.38;65.10;102265.47;5031485;28;20033;-61
2022/03/16 03:12:41;;;;;;;29.33;23.40;;;;;;;7.39;65.25;102269.09;5032074;28;20416;-61
2022/03/16 03:15:10;;;;;;;30.90;24.63;;;;;;;7.34;65.81;102268.81;5032535;28;20029;-60
2022/03/16 03:17:36;;;;;;;29.17;24.02;;;;;;;7.25;65.85;102262.56;5031582;28;20033;-61
2022/03/16 03:20:02;;;;;;;28.23;23.10;;;;;;;7.24;65.55;102276.59;5032162;28;20104;-61
2022/03/16 03:22:28;;;;;;;28.17;23.25;;;;;;;7.32;65.97;102279.22;5032927;28;20025;-61
2022/03/16 03:24:55;;;;;;;29.92;23.48;;;;;;;7.29;65.44;102283.22;5030764;28;20029;-61
2022/03/16 03:27:21;;;;;;;27.73;22.95;;;;;;;7.24;66.04;102280.22;5033665;28;20025;-61
2022/03/16 03:29:49;;;;;;;28.67;24.13;;;;;;;7.23;65.89;102275.75;5031308;28;20048;-61
2022/03/16 03:32:14;;;;;;;27.00;23.05;;;;;;;7.27;66.58;102281.69;5031953;28;20113;-61
2022/03/16 03:34:39;;;;;;;31.33;24.30;;;;;;;7.27;66.24;102281.69;5033287;28;20495;-61
2022/03/16 03:37:08;;;;;;;28.15;23.02;;;;;;;7.30;66.01;102281.31;5030511;28;20030;-61
2022/03/16 03:39:33;;;;;;;30.02;23.25;;;;;;;7.29;66.23;102274.94;5033080;28;20025;-60
2022/03/16 03:41:59;;;;;;;33.10;24.00;;;;;;;7.26;66.24;102274.47;5031638;28;20029;-60
2022/03/16 03:44:24;;;;;;;29.05;23.33;;;;;;;7.29;66.04;102274.09;5030590;28;20168;-60
2022/03/16 03:46:52;;;;;;;28.05;22.58;;;;;;;7.24;66.07;102277.44;5032390;28;20021;-61
2022/03/16 03:49:18;;;;;;;29.23;23.10;;;;;;;7.27;65.74;102276.19;5026337;28;20462;-61
2022/03/16 03:51:43;;;;;;;30.10;23.52;;;;;;;7.27;66.47;102276.19;5024884;28;20032;-61
2022/03/16 03:54:09;;;;;;;29.52;23.45;;;;;;;7.28;66.14;102266.84;5031691;28;20025;-61
2022/03/16 03:56:34;;;;;;;29.67;22.02;;;;;;;7.29;65.58;102282.38;5032672;28;20022;-61
2022/03/16 03:58:59;;;;;;;27.52;23.90;;;;;;;7.25;66.52;102273.63;5030881;28;20083;-61
2022/03/16 04:01:24;;;;;;;29.13;23.58;;;;;;;7.31;65.96;102280.25;5030794;28;20128;-61
2022/03/16 04:03:50;;;;;;;29.10;23.58;;;;;;;7.27;65.96;102282.59;5031976;28;20072;-61
2022/03/16 04:06:15;;;;;;;27.80;23.17;;;;;;;7.26;66.47;102280.00;5030369;28;20397;-61
2022/03/16 04:08:42;;;;;;;26.42;21.90;;;;;;;7.25;65.87;102278.28;5025259;28;20034;-61
2022/03/16 04:11:09;;;;;;;33.20;23.90;;;;;;;7.21;65.95;102265.94;5026779;28;20481;-60
2022/03/16 04:13:34;;;;;;;28.92;23.08;;;;;;;7.18;66.18;102269.94;5031930;28;20027;-60
2022/03/16 04:16:00;;;;;;;26.95;23.27;;;;;;;7.17;66.18;102272.91;5031962;28;20021;-60
2022/03/16 04:18:26;;;;;;;28.45;22.85;;;;;;;7.14;65.73;102263.94;5031853;28;20084;-61
2022/03/16 04:20:51;;;;;;;29.23;24.15;;;;;;;7.09;66.69;102263.69;5030549;28;20029;-60
2022/03/16 04:23:17;;;;;;;30.75;24.25;;;;;;;7.12;66.51;102266.06;5027119;28;20477;-61
2022/03/16 04:25:42;;;;;;;29.15;23.48;;;;;;;7.11;66.76;102260.72;5011469;28;20046;-60
2022/03/16 04:28:09;;;;;;;32.08;24.95;;;;;;;7.08;66.83;102264.75;5014664;28;20025;-60
2022/03/16 04:30:34;;;;;;;29.80;25.23;;;;;;;7.10;67.14;102268.16;5027226;28;20022;-60
2022/03/16 04:32:59;;;;;;;30.38;23.60;;;;;;;7.06;67.06;102264.06;5030561;28;20037;-60
2022/03/16 04:35:24;;;;;;;31.02;24.08;;;;;;;7.01;66.49;102266.56;5031473;28;20535;-60
2022/03/16 04:37:50;;;;;;;30.92;24.95;;;;;;;7.05;67.04;102264.28;5031442;28;20041;-61
2022/03/16 04:40:15;;;;;;;32.90;25.17;;;;;;;7.05;67.73;102262.38;5021998;28;20124;-60
2022/03/16 04:42:41;;;;;;;34.05;26.45;;;;;;;7.06;66.83;102265.97;5031091;28;20044;-61
2022/03/16 04:45:07;;;;;;;32.15;25.90;;;;;;;7.08;67.47;102261.97;5031217;28;20033;-60
2022/03/16 04:47:32;;;;;;;32.35;25.67;;;;;;;7.04;67.30;102266.19;5029545;28;20042;-61
2022/03/16 04:49:57;;;;;;;30.42;24.73;;;;;;;7.05;67.44;102265.13;5031403;28;20469;-60
2022/03/16 04:52:25;;;;;;;33.35;25.98;;;;;;;7.02;67.09;102262.75;5031273;28;20045;-61
2022/03/16 04:54:50;;;;;;;31.13;24.85;;;;;;;7.02;66.77;102268.28;5031444;28;20029;-61
2022/03/16 04:57:16;;;;;;;30.85;25.55;;;;;;;7.04;66.97;102257.91;5017676;28;20393;-60
2022/03/16 04:59:41;;;;;;;33.60;26.27;;;;;;;7.04;67.39;102257.91;5031146;28;20052;-60
2022/03/16 05:02:06;;;;;;;33.75;26.98;;;;;;;7.00;66.95;102259.34;5029577;28;20080;-61
2022/03/16 05:04:31;;;;;;;32.28;25.55;;;;;;;7.03;66.98;102269.97;5031024;28;20033;-60
2022/03/16 05:06:57;;;;;;;30.88;25.75;;;;;;;6.95;67.02;102278.38;5031596;28;20029;-60
2022/03/16 05:09:22;;;;;;;32.08;24.92;;;;;;;6.93;67.19;102274.97;5030272;28;20022;-61
2022/03/16 05:11:47;;;;;;;35.28;26.05;;;;;;;6.96;66.67;102268.22;5030889;28;20031;-61
2022/03/16 05:14:13;;;;;;;32.00;25.55;;;;;;;6.97;67.09;102275.44;5031424;28;20029;-61
2022/03/16 05:16:38;;;;;;;34.10;26.83;;;;;;;6.99;66.77;102268.66;5030111;28;20353;-61
2022/03/16 05:19:04;;;;;;;33.45;25.58;;;;;;;6.99;66.92;102268.66;5029742;28;20033;-61
2022/03/16 05:21:29;;;;;;;30.65;25.20;;;;;;;7.02;66.83;102268.28;5030308;28;20101;-61
2022/03/16 05:23:55;;;;;;;32.10;24.95;;;;;;;7.01;67.49;102261.03;5030273;28;20036;-61
2022/03/16 05:26:23;;;;;;;34.13;25.58;;;;;;;6.99;67.83;102252.09;5031390;28;20026;-60
2022/03/16 05:28:48;;;;;;;29.77;24.23;;;;;;;7.01;66.86;102244.47;5031468;28;20468;-60
2022/03/16 05:31:13;;;;;;;28.48;23.70;;;;;;;7.01;66.32;102246.41;5029901;28;20045;-61
2022/03/16 05:33:39;;;;;;;29.92;24.88;;;;;;;6.97;66.97;102247.84;5030760;28;20353;-61
2022/03/16 05:36:04;;;;;;;30.65;23.63;;;;;;;6.98;67.08;102246.78;5029942;28;20037;-60
2022/03/16 05:38:30;;;;;;;27.98;24.35;;;;;;;6.95;67.08;102241.63;5031061;28;20021;-60
2022/03/16 05:40:55;;;;;;;28.17;24.08;;;;;;;6.97;66.72;102248.69;5029190;28;20041;-61
2022/03/16 05:43:21;;;;;;;30.73;24.63;;;;;;;6.99;67.20;102248.47;5010814;28;20033;-61
2022/03/16 05:45:50;;;;;;;26.90;22.88;;;;;;;6.92;67.83;102256.72;5022537;28;20133;-60
2022/03/16 05:48:15;;;;;;;29.35;23.92;;;;;;;6.90;67.61;102258.78;5030566;28;20147;-61
2022/03/16 05:50:45;;;;;;;28.90;23.80;;;;;;;6.90;67.52;102253.28;5029398;28;20795;-61
2022/03/16 05:53:12;;;;;;;28.00;22.98;;;;;;;6.91;67.02;102259.63;5031456;28;20022;-61
2022/03/16 05:55:37;;;;;;;29.48;23.83;;;;;;;6.92;67.30;102267.75;5030270;28;20038;-61
2022/03/16 05:58:06;;;;;;;28.85;23.17;;;;;;;6.89;67.42;102266.22;5018592;28;20080;-60
2022/03/16 06:00:31;;;;;;;28.95;22.75;;;;;;;6.90;67.59;102275.34;5026968;28;20033;-61
2022/03/16 06:02:57;;;;;;;29.02;23.15;;;;;;;6.80;67.33;102270.16;5024162;28;20115;-61
2022/03/16 06:05:25;;;;;;;28.98;23.50;;;;;;;6.82;68.05;102265.28;5029743;28;20037;-61
2022/03/16 06:07:52;;;;;;;28.95;21.95;;;;;;;6.87;67.91;102270.22;5018325;28;20026;-61
2022/03/16 06:10:18;;;;;;;29.25;21.90;;;;;;;6.86;67.89;102269.34;5022191;28;20021;-61
2022/03/16 06:12:53;;;;;;;28.05;21.77;;;;;;;6.92;68.35;102278.78;5029091;28;20037;-61
2022/03/16 06:15:18;;;;;;;28.63;21.80;;;;;;;6.94;67.53;102284.09;5026717;28;20040;-61
2022/03/16 06:17:44;;;;;;;29.17;22.85;;;;;;;6.94;67.68;102287.72;5027812;28;20021;-60
2022/03/16 06:20:10;;;;;;;28.48;22.95;;;;;;;6.92;68.10;102284.31;5023199;28;20053;-61
2022/03/16 06:22:35;;;;;;;27.58;21.73;;;;;;;6.93;68.21;102282.41;5019993;28;20112;-60
2022/03/16 06:25:00;;;;;;;27.77;21.60;;;;;;;6.95;67.83;102278.38;5027016;28;20120;-61
2022/03/16 06:27:26;;;;;;;25.15;20.77;;;;;;;6.99;67.50;102279.69;5025602;28;20738;-61
2022/03/16 06:29:51;;;;;;;27.80;21.88;;;;;;;7.00;67.28;102275.06;5026569;28;20033;-60
2022/03/16 06:32:16;;;;;;;28.35;21.77;;;;;;;7.04;67.79;102285.50;5024228;28;20300;-61
2022/03/16 06:34:46;;;;;;;28.17;21.67;;;;;;;7.07;67.67;102279.59;5032924;28;20051;-61
2022/03/16 06:37:13;;;;;;;28.58;19.02;;;;;;;7.06;67.75;102279.78;5030401;28;20029;-61
2022/03/16 06:39:39;;;;;;;28.85;22.45;;;;;;;7.04;67.79;102282.75;5030830;28;20431;-61
2022/03/16 06:42:05;;;;;;;28.75;21.27;;;;;;;7.03;67.51;102278.25;5032958;28;20029;-62
2022/03/16 06:44:30;;;;;;;29.95;21.85;;;;;;;6.99;67.69;102279.69;5022421;28;20048;-61
2022/03/16 06:46:58;;;;;;;29.15;21.63;;;;;;;6.96;68.18;102277.34;5022401;28;21544;-61
2022/03/16 06:49:23;;;;;;;29.88;20.70;;;;;;;6.93;68.26;102274.13;5021659;28;20021;-63
2022/03/16 06:51:49;;;;;;;26.88;20.83;;;;;;;6.91;68.04;102271.53;5021038;28;20041;-62
2022/03/16 06:54:15;;;;;;;24.92;20.45;;;;;;;6.96;68.35;102268.22;5025053;28;20627;-60
2022/03/16 06:56:43;;;;;;;24.90;19.50;;;;;;;6.96;68.15;102258.03;5023939;28;20069;-61
2022/03/16 06:59:14;;;;;;;24.58;19.85;;;;;;;7.00;68.13;102264.88;5022019;28;20046;-61
2022/03/16 07:01:39;;;;;;;27.48;20.17;;;;;;;7.06;68.63;102247.50;5017427;28;20022;-61
2022/03/16 07:04:05;;;;;;;23.25;19.17;;;;;;;7.05;67.58;102247.72;5026985;28;20071;-61
2022/03/16 07:06:30;;;;;;;24.85;19.90;;;;;;;7.08;68.28;102245.41;5023081;28;20037;-60
2022/03/16 07:08:56;;;;;;;23.73;18.40;;;;;;;7.12;68.40;102241.22;5022396;28;20039;-61
2022/03/16 07:11:21;;;;;;;25.15;19.40;;;;;;;7.13;67.86;102248.44;5023144;28;20038;-61
2022/03/16 07:14:30;;;;;;;23.70;18.38;;;;;;;7.15;67.86;102250.97;5024719;28;20052;-61
2022/03/16 07:16:32;;;;;;;23.92;18.45;;;;;;;7.16;68.00;102243.59;5023832;28;20041;-61
2022/03/16 07:18:58;;;;;;;26.58;19.88;;;;;;;7.18;67.79;102249.75;5027133;28;20041;-60
2022/03/16 07:21:23;;;;;;;24.30;18.90;;;;;;;7.20;67.54;102258.72;5022161;28;20484;-60
2022/03/16 07:23:48;;;;;;;24.63;18.85;;;;;;;7.22;67.74;102249.16;5030574;28;20068;-61
2022/03/16 07:26:14;;;;;;;24.67;18.35;;;;;;;7.28;68.13;102250.28;5027110;28;20037;-61
2022/03/16 07:28:39;;;;;;;24.38;17.80;;;;;;;7.31;67.86;102236.06;5028148;28;20084;-61
2022/03/16 07:31:04;;;;;;;22.00;16.92;;;;;;;7.35;67.95;102232.72;5031709;28;20112;-61
2022/03/16 07:33:30;;;;;;;23.45;18.35;;;;;;;7.39;67.58;102233.19;5032179;28;20095;-61
2022/03/16 07:35:55;;;;;;;25.45;17.98;;;;;;;7.44;67.37;102236.22;5030790;28;20769;-61
2022/03/16 07:38:24;;;;;;;25.02;18.42;;;;;;;7.44;66.62;102229.84;5031190;28;20112;-61
2022/03/16 07:40:49;;;;;;;24.60;19.10;;;;;;;7.45;67.37;102224.09;5029665;28;20022;-62
2022/03/16 07:43:17;;;;;;;23.23;17.63;;;;;;;7.50;67.19;102227.09;5031197;28;20102;-61
2022/03/16 07:45:43;;;;;;;22.55;17.27;;;;;;;7.54;66.82;102227.56;5028319;28;20033;-61
2022/03/16 07:48:11;;;;;;;24.30;17.85;;;;;;;7.62;67.68;102231.06;5030445;28;20034;-61
2022/03/16 07:50:36;;;;;;;22.90;17.98;;;;;;;7.72;66.20;102235.38;5027238;28;20035;-61
2022/03/16 07:53:03;;;;;;;26.05;18.48;;;;;;;7.74;66.14;102227.72;5027969;28;20033;-62
2022/03/16 07:55:28;;;;;;;24.10;18.02;;;;;;;7.76;66.25;102231.16;5033222;28;20505;-62
2022/03/16 07:57:55;;;;;;;22.00;17.40;;;;;;;7.78;66.46;102235.44;5033798;28;20037;-62
2022/03/16 08:00:21;;;;;;;22.10;17.52;;;;;;;7.81;66.31;102231.41;5031343;28;20473;-63
2022/03/16 08:02:46;;;;;;;23.88;17.92;;;;;;;7.84;65.71;102236.53;5030275;28;20033;-62
2022/03/16 08:05:14;;;;;;;23.83;17.77;;;;;;;7.86;66.37;102242.72;5034893;28;20063;-63
2022/03/16 08:07:42;;;;;;;23.75;17.20;;;;;;;7.93;66.10;102237.22;5032945;28;20037;-62
2022/03/16 08:10:08;;;;;;;22.38;17.70;;;;;;;8.04;66.10;102236.66;5024521;28;20069;-63
2022/03/16 08:12:34;;;;;;;24.30;17.95;;;;;;;8.14;65.29;102230.78;5030400;28;20036;-62
2022/03/16 08:15:00;;;;;;;20.40;17.10;;;;;;;8.21;65.23;102229.75;5032214;28;20033;-62
2022/03/16 08:17:28;;;;;;;25.30;17.95;;;;;;;8.27;65.24;102230.84;5031614;28;20025;-63
2022/03/16 08:19:53;;;;;;;22.55;18.42;;;;;;;8.31;65.13;102229.38;5029153;28;20025;-62
2022/03/16 08:22:36;;;;;;;24.05;18.52;;;;;;;8.32;65.13;102218.09;5026345;28;20428;-62
2022/03/16 08:25:08;;;;;;;21.73;17.73;;;;;;;8.38;64.40;102221.16;5034771;28;20048;-61
2022/03/16 08:27:37;;;;;;;22.58;18.00;;;;;;;8.54;64.12;102218.91;5027880;28;20025;-61
2022/03/16 08:30:05;;;;;;;22.70;17.58;;;;;;;8.68;64.54;102230.84;5023452;28;20033;-59
2022/03/16 08:32:30;;;;;;;25.08;19.17;;;;;;;8.81;64.13;102230.94;5029934;28;20037;-61
2022/03/16 08:34:56;;;;;;;23.05;18.00;;;;;;;8.94;63.35;102220.94;5025929;28;20383;-61
2022/03/16 08:37:22;;;;;;;21.45;18.27;;;;;;;9.05;63.11;102214.81;5024100;28;20037;-61
2022/03/16 08:39:48;;;;;;;22.67;18.25;;;;;;;9.14;61.87;102215.44;5028483;28;20084;-61
2022/03/16 08:42:16;;;;;;;21.00;17.75;;;;;;;9.24;61.64;102225.06;5029741;28;20029;-61
2022/03/16 08:44:42;;;;;;;20.85;17.80;;;;;;;9.38;62.34;102225.06;5020046;28;20033;-60
2022/03/16 08:47:10;;;;;;;23.98;18.35;;;;;;;9.46;61.38;102216.53;5030212;28;20029;-60
2022/03/16 08:49:37;;;;;;;23.77;17.88;;;;;;;9.53;61.40;102223.81;5025242;28;20112;-59
2022/03/16 08:52:04;;;;;;;20.27;17.05;;;;;;;9.58;61.58;102220.38;5024253;28;20029;-60
2022/03/16 08:54:29;;;;;;;22.27;17.95;;;;;;;9.74;60.89;102241.28;5029840;28;20055;-60
2022/03/16 08:56:54;;;;;;;22.92;17.00;;;;;;;9.91;60.97;102237.03;5022112;28;20025;-59
2022/03/16 08:59:20;;;;;;;24.90;17.85;;;;;;;10.03;60.55;102237.22;5024246;28;20042;-60
2022/03/16 09:01:49;;;;;;;20.88;16.50;;;;;;;10.11;59.88;102253.63;5020729;28;20025;-60
2022/03/16 09:04:17;;;;;;;22.10;16.95;;;;;;;10.26;59.59;102245.97;5025461;28;20541;-60
2022/03/16 09:06:45;;;;;;;23.75;17.17;;;;;;;10.36;58.72;102245.50;5022921;28;20025;-60
2022/03/16 09:09:11;;;;;;;25.75;18.75;;;;;;;10.41;58.88;102248.47;5029604;28;20084;-60
2022/03/16 09:11:40;;;;;;;22.70;17.95;;;;;;;10.48;58.63;102245.66;5015393;28;20030;-60
2022/03/16 09:14:06;;;;;;;23.17;18.33;;;;;;;10.59;58.60;102242.22;5015201;28;20037;-60
2022/03/16 09:16:31;;;;;;;26.20;18.73;;;;;;;10.68;58.31;102232.56;5030218;28;20025;-60
2022/03/16 09:18:56;;;;;;;24.92;19.27;;;;;;;10.81;58.08;102238.06;5030749;28;20469;-60
2022/03/16 09:21:24;;;;;;;23.80;18.00;;;;;;;10.89;58.11;102233.34;5029398;28;20056;-60
2022/03/16 09:23:49;;;;;;;24.70;18.35;;;;;;;11.01;57.48;102243.53;5028221;28;20061;-60
2022/03/16 09:26:14;;;;;;;26.15;18.42;;;;;;;11.13;57.63;102237.28;5025913;28;20057;-60
2022/03/16 09:28:40;;;;;;;24.75;18.35;;;;;;;11.19;57.44;102228.88;5028485;28;20029;-60
2022/03/16 09:31:09;;;;;;;26.13;19.02;;;;;;;11.28;56.86;102235.88;5018457;28;20068;-60
2022/03/16 09:33:34;;;;;;;25.27;18.80;;;;;;;11.34;56.66;102233.28;5011831;28;20359;-60
2022/03/16 09:36:00;;;;;;;23.73;17.77;;;;;;;11.37;56.59;102228.13;5020678;28;20092;-60
2022/03/16 09:38:26;;;;;;;26.08;18.33;;;;;;;11.44;56.47;102222.53;5023385;28;20078;-65
2022/03/16 09:40:53;;;;;;;25.90;18.77;;;;;;;11.40;56.14;102229.59;5028432;28;20168;-61
2022/03/16 09:43:19;;;;;;;25.02;18.50;;;;;;;11.46;56.27;102223.97;5027377;28;20389;-60
2022/03/16 09:45:53;;;;;;;24.63;18.80;;;;;;;11.57;56.62;102218.78;5025836;28;20057;-60
2022/03/16 09:48:21;;;;;;;22.73;17.63;;;;;;;11.64;56.12;102209.31;5029761;28;20039;-60
2022/03/16 09:50:46;;;;;;;23.45;16.77;;;;;;;11.76;55.88;102212.19;5029458;28;20424;-60
2022/03/16 09:53:14;;;;;;;23.67;18.33;;;;;;;11.79;56.04;102214.53;5027201;28;20025;-60
2022/03/16 09:55:39;;;;;;;26.67;18.30;;;;;;;11.87;55.73;102200.34;5030237;28;20041;-60
2022/03/16 09:58:05;;;;;;;24.60;17.95;;;;;;;11.99;55.87;102211.56;5028037;28;20022;-60
2022/03/16 10:00:30;;;;;;;23.02;17.55;;;;;;;12.04;55.54;102212.56;5030153;28;20025;-60
2022/03/16 10:03:00;;;;;;;23.33;17.70;;;;;;;12.15;54.78;102199.84;5029938;28;20509;-60
2022/03/16 10:05:26;;;;;;;21.27;17.48;;;;;;;12.17;54.63;102196.81;5030850;28;20055;-60
2022/03/16 10:07:55;;;;;;;21.95;17.63;;;;;;;12.18;54.86;102199.38;5032629;28;20500;-60
2022/03/16 10:13:25;;;;;;;21.92;16.17;;;;;;;12.39;55.05;102188.88;5014707;28;20468;-60
2022/03/16 10:15:52;;;;;;;23.75;17.42;;;;;;;12.47;54.28;102194.97;5023686;28;20069;-60
2022/03/16 10:18:21;;;;;;;24.75;17.08;;;;;;;12.53;54.64;102191.22;5032870;28;20037;-60
2022/03/16 10:20:47;;;;;;;24.08;18.20;;;;;;;12.58;54.24;102192.50;5023711;28;20034;-60
2022/03/16 10:23:14;;;;;;;23.58;17.30;;;;;;;12.65;54.60;102182.09;5020995;28;20033;-60
2022/03/16 10:25:45;;;;;;;18.02;14.98;;;;;;;12.69;54.01;102188.88;5032580;28;20563;-60
2022/03/16 10:28:18;;;;;;;24.13;18.23;;;;;;;12.70;54.75;102185.03;5027810;28;20060;-60
2022/03/16 10:31:02;;;;;;;28.38;17.20;;;;;;;12.71;54.67;102184.78;5031116;28;20036;-60
2022/03/16 10:33:46;;;;;;;21.10;15.55;;;;;;;12.76;54.58;102187.72;5018022;28;20052;-60
2022/03/16 10:36:14;;;;;;;18.88;15.77;;;;;;;12.79;53.60;102183.63;5024499;28;20041;-60
2022/03/16 10:38:50;;;;;;;22.02;16.15;;;;;;;12.76;54.06;102176.56;5032310;28;20128;-60
2022/03/16 10:46:34;;;;;;;23.08;17.13;;;;;;;12.80;53.66;102182.53;5016639;28;20038;-60
2022/03/16 10:46:52;;;;;;;21.70;17.65;;;;;;;12.82;53.81;102177.59;5033100;28;20536;-60
2022/03/16 10:49:20;;;;;;;22.13;17.35;;;;;;;12.79;53.73;102172.47;5032301;28;20033;-60
2022/03/16 10:51:46;;;;;;;20.67;16.95;;;;;;;12.81;53.91;102167.53;5033078;28;20025;-60
2022/03/16 10:54:15;;;;;;;25.00;16.98;;;;;;;12.79;54.40;102166.91;5030193;28;20060;-60
2022/03/16 10:56:41;;;;;;;20.33;16.35;;;;;;;12.82;54.05;102165.59;5029360;28;20112;-60
2022/03/16 10:59:08;;;;;;;18.98;14.95;;;;;;;12.83;54.05;102172.84;5032496;28;20133;-61
2022/03/16 11:01:38;;;;;;;18.58;14.07;;;;;;;12.88;54.08;102178.56;5029398;28;20064;-60
2022/03/16 11:04:04;;;;;;;16.77;12.77;;;;;;;13.01;54.50;102176.44;5031583;28;20036;-60
2022/03/16 11:06:30;;;;;;;17.42;13.98;;;;;;;13.02;54.32;102169.78;5033388;28;20057;-61
2022/03/16 11:08:57;;;;;;;20.45;15.52;;;;;;;12.99;53.72;102164.66;5031229;28;20037;-60
2022/03/16 11:14:10;;;;;;;17.95;14.82;;;;;;;12.86;54.23;102158.47;5030673;28;20044;-60
2022/03/16 11:16:36;;;;;;;17.13;13.07;;;;;;;12.81;54.85;102161.97;5032384;28;20075;-60
2022/03/16 11:19:04;;;;;;;16.75;14.10;;;;;;;12.79;55.31;102166.91;5030192;28;20365;-60